Time;durP1;ratioP1;P1;durP2;ratioP2;P2;SDS_P1;SDS_P2;PMS_P1;PMS_P2;Temp;Humidity;BMP_temperature;BMP_pressure;BME280_temperature;BME280_humidity;BME280_pressure;Samples;Min_cycle;Max_cycle;Signal;HPM_P1;HPM_P2
2021/07/22 00:02:01;;;;;;;13.82;10.50;;;;;;;;;;3553668;40;20238;-80
2021/07/22 00:04:28;;;;;;;11.43;10.18;;;;;;;;;;3545395;40;20221;-81
2021/07/22 00:06:55;;;;;;;11.95;9.45;;;;;;;;;;3553703;40;20241;-83
2021/07/22 00:09:24;;;;;;;9.88;8.80;;;;;;;;;;3553733;40;20249;-83
2021/07/22 00:11:52;;;;;;;10.02;9.13;;;;;;;;;;3545219;40;20253;-82
2021/07/22 00:14:19;;;;;;;12.18;9.70;;;;;;;;;;3545359;40;20234;-82
2021/07/22 00:16:46;;;;;;;11.48;10.40;;;;;;;;;;3553592;40;20289;-81
2021/07/22 00:19:14;;;;;;;10.77;9.70;;;;;;;;;;3553673;40;20246;-80
2021/07/22 00:21:41;;;;;;;11.90;9.23;;;;;;;;;;3553617;40;20230;-82
2021/07/22 00:24:08;;;;;;;13.35;10.27;;;;;;;;;;3553547;40;20300;-82
2021/07/22 00:26:39;;;;;;;10.95;9.60;;;;;;;;;;3553486;40;20244;-80
2021/07/22 00:29:07;;;;;;;10.50;9.55;;;;;;;;;;3553627;40;20240;-82
2021/07/22 00:31:35;;;;;;;9.35;8.18;;;;;;;;;;3553401;40;20225;-81
2021/07/22 00:34:07;;;;;;;11.82;9.90;;;;;;;;;;3553550;40;20250;-82
2021/07/22 00:36:35;;;;;;;11.40;10.30;;;;;;;;;;3553546;40;20242;-81
2021/07/22 00:39:02;;;;;;;11.63;10.07;;;;;;;;;;3553513;40;20257;-80
2021/07/22 00:41:30;;;;;;;11.80;9.10;;;;;;;;;;3545092;40;20261;-83
2021/07/22 00:44:02;;;;;;;10.27;9.25;;;;;;;;;;3545202;40;20249;-85
2021/07/22 00:46:30;;;;;;;10.63;9.52;;;;;;;;;;3544259;40;20241;-80
2021/07/22 00:48:58;;;;;;;10.98;9.10;;;;;;;;;;3553476;40;20828;-83
2021/07/22 00:51:25;;;;;;;10.07;9.07;;;;;;;;;;3553568;40;20237;-82
2021/07/22 00:53:53;;;;;;;10.85;9.73;;;;;;;;;;3545001;40;20262;-82
2021/07/22 00:56:20;;;;;;;10.98;8.93;;;;;;;;;;3544946;40;20245;-83
2021/07/22 00:58:48;;;;;;;9.68;8.75;;;;;;;;;;3552971;40;20721;-81
2021/07/22 01:01:16;;;;;;;11.25;9.50;;;;;;;;;;3552966;40;20240;-81
2021/07/22 01:03:44;;;;;;;9.90;8.90;;;;;;;;;;3553287;40;20261;-82
2021/07/22 01:06:12;;;;;;;12.98;9.23;;;;;;;;;;3553240;40;20242;-81
2021/07/22 01:08:40;;;;;;;10.93;9.65;;;;;;;;;;3545001;40;20606;-81
2021/07/22 01:11:33;;;;;;;10.30;9.30;;;;;;;;;;3552220;40;20657;-81
2021/07/22 01:14:01;;;;;;;9.85;8.50;;;;;;;;;;3553298;40;20226;-81
2021/07/22 01:16:30;;;;;;;10.45;9.20;;;;;;;;;;3553169;40;20254;-81
2021/07/22 01:18:58;;;;;;;11.45;9.07;;;;;;;;;;3544930;40;20230;-80
2021/07/22 01:21:27;;;;;;;10.68;8.77;;;;;;;;;;3554543;40;20754;-81
2021/07/22 01:23:56;;;;;;;13.90;9.38;;;;;;;;;;3544783;40;20234;-82
2021/07/22 01:26:35;;;;;;;9.32;8.52;;;;;;;;;;3553315;40;20221;-81
2021/07/22 01:29:29;;;;;;;17.30;15.60;;;;;;;;;;3537207;40;20221;-88
2021/07/22 01:31:56;;;;;;;12.60;11.23;;;;;;;;;;3544766;40;20238;-82
2021/07/22 01:34:24;;;;;;;12.35;10.35;;;;;;;;;;3553145;40;20241;-81
2021/07/22 01:36:53;;;;;;;14.57;10.25;;;;;;;;;;3544650;40;20225;-81
2021/07/22 01:39:20;;;;;;;10.55;9.45;;;;;;;;;;3544777;40;20252;-83
2021/07/22 01:41:47;;;;;;;12.98;9.60;;;;;;;;;;3552937;40;20248;-81
2021/07/22 01:44:16;;;;;;;10.35;9.30;;;;;;;;;;3544536;40;20237;-82
2021/07/22 01:46:44;;;;;;;9.80;8.38;;;;;;;;;;3544632;40;20944;-81
2021/07/22 01:49:12;;;;;;;10.93;9.82;;;;;;;;;;3544824;40;20226;-81
2021/07/22 01:51:39;;;;;;;11.90;10.18;;;;;;;;;;3553110;40;20238;-81
2021/07/22 01:54:10;;;;;;;10.93;9.82;;;;;;;;;;3544667;40;20788;-81
2021/07/22 01:56:38;;;;;;;10.60;9.50;;;;;;;;;;3553034;40;20218;-82
2021/07/22 01:59:05;;;;;;;11.23;9.75;;;;;;;;;;3544573;40;20257;-81
2021/07/22 02:01:35;;;;;;;11.38;9.43;;;;;;;;;;3544601;40;20270;-82
2021/07/22 02:04:20;;;;;;;10.35;9.25;;;;;;;;;;3536527;40;20229;-79
2021/07/22 02:06:47;;;;;;;11.48;10.30;;;;;;;;;;3544453;40;20246;-80
2021/07/22 02:09:19;;;;;;;10.95;9.85;;;;;;;;;;3536500;40;20303;-83
2021/07/22 02:11:48;;;;;;;14.30;8.98;;;;;;;;;;3552944;40;20247;-81
2021/07/22 02:14:17;;;;;;;10.13;9.20;;;;;;;;;;3544599;40;20888;-83
2021/07/22 02:16:45;;;;;;;10.75;9.65;;;;;;;;;;3544501;40;20218;-81
2021/07/22 02:19:14;;;;;;;11.70;9.65;;;;;;;;;;3552932;40;20264;-82
2021/07/22 02:21:42;;;;;;;11.65;9.85;;;;;;;;;;3544646;40;20844;-81
2021/07/22 02:24:13;;;;;;;11.32;10.10;;;;;;;;;;3544194;40;20249;-82
2021/07/22 02:27:01;;;;;;;10.85;9.75;;;;;;;;;;3544413;40;20735;-82
2021/07/22 02:29:29;;;;;;;11.65;10.43;;;;;;;;;;3552651;40;20725;-82
2021/07/22 02:31:57;;;;;;;11.55;10.40;;;;;;;;;;3544356;40;20775;-81
2021/07/22 02:34:26;;;;;;;13.32;10.85;;;;;;;;;;3544262;40;20297;-82
2021/07/22 02:36:57;;;;;;;11.05;9.95;;;;;;;;;;3544186;40;20288;-81
2021/07/22 02:39:35;;;;;;;15.07;10.68;;;;;;;;;;3544456;40;20240;-85
2021/07/22 02:42:04;;;;;;;12.85;10.32;;;;;;;;;;3543280;40;20229;-80
2021/07/22 02:44:38;;;;;;;12.38;10.25;;;;;;;;;;3558058;40;20237;-83
2021/07/22 02:47:16;;;;;;;11.70;10.57;;;;;;;;;;3545801;40;20732;-81
2021/07/22 02:49:44;;;;;;;12.27;10.45;;;;;;;;;;3545901;40;20241;-81
2021/07/22 02:52:14;;;;;;;11.55;10.30;;;;;;;;;;3554068;40;20986;-82
2021/07/22 02:54:46;;;;;;;11.27;9.98;;;;;;;;;;3554066;40;20233;-80
2021/07/22 02:57:15;;;;;;;10.70;9.52;;;;;;;;;;3562441;40;20233;-82
2021/07/22 02:59:44;;;;;;;11.13;10.00;;;;;;;;;;3553893;40;20236;-81
2021/07/22 03:02:13;;;;;;;11.82;10.60;;;;;;;;;;3553870;40;20256;-82
2021/07/22 03:04:40;;;;;;;12.23;10.93;;;;;;;;;;3554021;40;20240;-84
2021/07/22 03:07:15;;;;;;;12.25;10.27;;;;;;;;;;3553892;40;20240;-81
2021/07/22 03:09:44;;;;;;;13.48;11.32;;;;;;;;;;3554977;40;20237;-81
2021/07/22 03:12:12;;;;;;;13.73;11.07;;;;;;;;;;3555400;40;20263;-85
2021/07/22 03:14:48;;;;;;;12.38;11.02;;;;;;;;;;3555499;40;20311;-83
2021/07/22 03:17:17;;;;;;;13.07;11.52;;;;;;;;;;3555110;40;20276;-83
2021/07/22 03:19:53;;;;;;;12.75;10.90;;;;;;;;;;3555498;40;20247;-85
2021/07/22 03:22:44;;;;;;;12.20;11.00;;;;;;;;;;3560890;40;20798;-81
2021/07/22 03:25:27;;;;;;;12.98;11.68;;;;;;;;;;3561338;40;20226;-84
2021/07/22 03:28:06;;;;;;;12.68;10.43;;;;;;;;;;3545594;40;20246;-81
2021/07/22 03:30:55;;;;;;;12.85;11.05;;;;;;;;;;3558210;40;20217;-82
2021/07/22 03:33:41;;;;;;;12.45;11.15;;;;;;;;;;3555345;40;20518;-82
2021/07/22 03:36:17;;;;;;;14.38;11.68;;;;;;;;;;3555445;40;20233;-88
2021/07/22 03:39:07;;;;;;;12.10;10.48;;;;;;;;;;3548148;40;20272;-82
2021/07/22 03:41:34;;;;;;;12.73;11.45;;;;;;;;;;3563719;40;20236;-81
2021/07/22 03:44:12;;;;;;;13.32;11.10;;;;;;;;;;3555401;40;20283;-83
2021/07/22 03:46:42;;;;;;;11.95;10.82;;;;;;;;;;3554781;40;20237;-82
2021/07/22 03:49:11;;;;;;;13.73;11.75;;;;;;;;;;3555355;40;20249;-82
2021/07/22 03:51:39;;;;;;;13.75;11.23;;;;;;;;;;3554780;40;20263;-82
2021/07/22 03:54:07;;;;;;;13.30;11.90;;;;;;;;;;3555255;40;20239;-81
2021/07/22 03:56:35;;;;;;;14.90;11.55;;;;;;;;;;3563708;40;20221;-82
2021/07/22 03:59:08;;;;;;;15.07;13.20;;;;;;;;;;3555392;40;20241;-80
2021/07/22 04:01:38;;;;;;;14.48;12.02;;;;;;;;;;3554752;40;20233;-81
2021/07/22 04:04:16;;;;;;;15.43;13.07;;;;;;;;;;3547058;40;20291;-81
2021/07/22 04:06:44;;;;;;;13.43;11.93;;;;;;;;;;3554935;40;20694;-83
2021/07/22 04:09:22;;;;;;;15.15;11.77;;;;;;;;;;3555208;40;20221;-86
2021/07/22 04:11:54;;;;;;;13.63;12.23;;;;;;;;;;3563492;40;20272;-81
2021/07/22 04:14:47;;;;;;;14.82;13.30;;;;;;;;;;3561828;40;20248;-82
2021/07/22 04:17:21;;;;;;;19.25;14.18;;;;;;;;;;3563420;40;20239;-82
2021/07/22 04:20:11;;;;;;;14.90;13.40;;;;;;;;;;3547809;40;20225;-80
2021/07/22 04:22:59;;;;;;;14.60;12.98;;;;;;;;;;3554921;40;20909;-81
2021/07/22 04:25:46;;;;;;;15.85;13.85;;;;;;;;;;3554954;40;20256;-81
2021/07/22 04:28:20;;;;;;;14.77;12.85;;;;;;;;;;3563482;40;20248;-82
2021/07/22 04:30:48;;;;;;;14.60;13.00;;;;;;;;;;3554907;40;20244;-82
2021/07/22 04:33:27;;;;;;;14.93;12.98;;;;;;;;;;3555057;40;20247;-80
2021/07/22 04:36:11;;;;;;;17.77;14.02;;;;;;;;;;3554756;40;20279;-80
2021/07/22 04:38:56;;;;;;;15.18;13.55;;;;;;;;;;3562679;40;20253;-83
2021/07/22 04:41:56;;;;;;;17.30;14.00;;;;;;;;;;3551260;40;20232;-82
2021/07/22 04:44:43;;;;;;;16.73;14.20;;;;;;;;;;3567955;40;20281;-80
2021/07/22 04:47:18;;;;;;;14.93;13.13;;;;;;;;;;3554356;40;20233;-80
2021/07/22 04:50:02;;;;;;;16.80;14.55;;;;;;;;;;3555346;40;20248;-81
2021/07/22 04:52:52;;;;;;;16.30;14.65;;;;;;;;;;3560140;40;20257;-80
2021/07/22 04:55:25;;;;;;;16.48;14.18;;;;;;;;;;3554868;40;20233;-80
2021/07/22 04:57:59;;;;;;;16.02;14.45;;;;;;;;;;3554575;40;20240;-80
2021/07/22 05:00:28;;;;;;;18.25;15.25;;;;;;;;;;3554715;40;20272;-80
2021/07/22 05:02:58;;;;;;;17.40;15.00;;;;;;;;;;3554686;40;20226;-79
2021/07/22 05:05:28;;;;;;;17.88;16.08;;;;;;;;;;3554508;40;20394;-82
2021/07/22 05:08:20;;;;;;;17.27;15.50;;;;;;;;;;3545232;40;20245;-83
2021/07/22 05:11:02;;;;;;;17.10;15.23;;;;;;;;;;3563145;40;20253;-80
2021/07/22 05:13:40;;;;;;;19.45;14.68;;;;;;;;;;3554638;40;20259;-80
2021/07/22 05:16:35;;;;;;;17.40;14.40;;;;;;;;;;3554327;40;20265;-80
2021/07/22 05:19:13;;;;;;;17.52;15.63;;;;;;;;;;3554400;40;20319;-79
2021/07/22 05:21:46;;;;;;;15.18;13.63;;;;;;;;;;3546473;40;20252;-80
2021/07/22 05:24:28;;;;;;;16.65;15.02;;;;;;;;;;3554522;40;20248;-79
2021/07/22 05:27:21;;;;;;;17.42;15.27;;;;;;;;;;3562864;40;20256;-81
2021/07/22 05:30:20;;;;;;;20.88;16.40;;;;;;;;;;3551498;40;20248;-80
2021/07/22 05:33:07;;;;;;;19.42;17.15;;;;;;;;;;3558649;40;20238;-80
2021/07/22 05:36:01;;;;;;;21.02;17.52;;;;;;;;;;3543610;40;20678;-78
2021/07/22 05:38:52;;;;;;;22.95;15.88;;;;;;;;;;3552864;40;20242;-81
2021/07/22 05:41:21;;;;;;;17.98;16.02;;;;;;;;;;3553112;40;20751;-82
2021/07/22 05:43:48;;;;;;;21.38;15.98;;;;;;;;;;3544692;40;20669;-80
2021/07/22 05:46:18;;;;;;;16.65;14.85;;;;;;;;;;3553032;40;20249;-80
2021/07/22 05:48:46;;;;;;;25.73;16.02;;;;;;;;;;3553013;40;20221;-83
2021/07/22 05:51:13;;;;;;;17.92;15.75;;;;;;;;;;3544743;40;20266;-84
2021/07/22 05:53:41;;;;;;;16.20;13.85;;;;;;;;;;3552984;40;20245;-80
2021/07/22 05:56:11;;;;;;;15.63;14.05;;;;;;;;;;3552682;40;20276;-83
2021/07/22 05:58:39;;;;;;;16.98;14.38;;;;;;;;;;3552852;40;20242;-79
2021/07/22 06:01:07;;;;;;;18.25;16.33;;;;;;;;;;3553018;40;20233;-84
2021/07/22 06:03:34;;;;;;;18.35;15.85;;;;;;;;;;3552844;40;20242;-80
2021/07/22 06:06:02;;;;;;;18.67;15.95;;;;;;;;;;3560392;40;20241;-80
2021/07/22 06:08:29;;;;;;;19.40;15.93;;;;;;;;;;3554213;40;20252;-79
2021/07/22 06:10:56;;;;;;;21.52;16.85;;;;;;;;;;3562387;40;20287;-80
2021/07/22 06:13:44;;;;;;;17.35;15.70;;;;;;;;;;3562726;40;20255;-81
2021/07/22 06:16:12;;;;;;;21.25;18.95;;;;;;;;;;3555662;40;20291;-82
2021/07/22 06:18:40;;;;;;;16.95;14.32;;;;;;;;;;3555231;40;20266;-79
2021/07/22 06:21:08;;;;;;;16.55;14.38;;;;;;;;;;3551358;40;20256;-78
2021/07/22 06:23:35;;;;;;;20.85;15.13;;;;;;;;;;3561858;40;20249;-81
2021/07/22 06:26:02;;;;;;;17.13;15.18;;;;;;;;;;3551983;40;20233;-79
2021/07/22 06:28:30;;;;;;;15.73;14.02;;;;;;;;;;3558396;40;20218;-79
2021/07/22 06:30:59;;;;;;;18.25;14.80;;;;;;;;;;3558839;40;20445;-79
2021/07/22 06:33:26;;;;;;;17.63;15.07;;;;;;;;;;3555543;40;20630;-78
2021/07/22 06:35:54;;;;;;;17.55;14.25;;;;;;;;;;3554129;40;20241;-78
2021/07/22 06:38:21;;;;;;;15.95;14.15;;;;;;;;;;3550981;40;20308;-79
2021/07/22 06:40:49;;;;;;;20.88;16.25;;;;;;;;;;3550532;40;20669;-78
2021/07/22 06:43:16;;;;;;;20.02;16.70;;;;;;;;;;3557302;40;20261;-80
2021/07/22 06:45:43;;;;;;;17.75;15.80;;;;;;;;;;3555925;40;20264;-79
2021/07/22 06:48:12;;;;;;;23.88;17.58;;;;;;;;;;3564779;40;20243;-78
2021/07/22 06:50:40;;;;;;;20.58;16.73;;;;;;;;;;3563095;40;20244;-80
2021/07/22 06:53:08;;;;;;;20.27;15.90;;;;;;;;;;3565110;40;20261;-79
2021/07/22 06:55:35;;;;;;;16.95;15.25;;;;;;;;;;3565800;40;20291;-79
2021/07/22 06:58:07;;;;;;;21.40;15.32;;;;;;;;;;3550662;40;20276;-79
2021/07/22 07:00:36;;;;;;;16.70;15.10;;;;;;;;;;3560083;40;20692;-79
2021/07/22 07:03:04;;;;;;;16.50;14.82;;;;;;;;;;3565190;40;20251;-82
2021/07/22 07:05:32;;;;;;;16.25;14.05;;;;;;;;;;3567000;40;20251;-79
2021/07/22 07:08:00;;;;;;;17.05;14.45;;;;;;;;;;3570133;40;20255;-81
2021/07/22 07:10:27;;;;;;;17.88;13.80;;;;;;;;;;3551332;40;20252;-78
2021/07/22 07:12:57;;;;;;;15.82;14.18;;;;;;;;;;3562379;40;20244;-82
2021/07/22 07:15:42;;;;;;;20.20;14.35;;;;;;;;;;3644703;39;20591;-40
2021/07/22 07:18:10;;;;;;;17.98;15.18;;;;;;;;;;3648389;39;20585;-39
2021/07/22 07:20:37;;;;;;;15.48;13.95;;;;;;;;;;3641701;39;20239;-41
2021/07/22 07:23:04;;;;;;;17.20;14.30;;;;;;;;;;3638537;39;20380;-40
2021/07/22 07:25:33;;;;;;;15.73;13.50;;;;;;;;;;3638762;39;20239;-40
2021/07/22 07:28:00;;;;;;;13.68;12.25;;;;;;;;;;3638418;39;20243;-40
2021/07/22 07:30:28;;;;;;;18.33;15.68;;;;;;;;;;3638734;39;20514;-40
2021/07/22 07:32:56;;;;;;;17.33;13.27;;;;;;;;;;3638947;39;20296;-40
2021/07/22 07:35:25;;;;;;;14.98;13.38;;;;;;;;;;3638734;39;20239;-41
2021/07/22 07:37:53;;;;;;;13.88;12.50;;;;;;;;;;3638402;39;20234;-40
2021/07/22 07:40:20;;;;;;;15.00;13.40;;;;;;;;;;3637559;39;20239;-42
2021/07/22 07:42:48;;;;;;;13.60;12.18;;;;;;;;;;3638516;39;20602;-39
2021/07/22 07:45:15;;;;;;;20.65;18.45;;;;;;;;;;3637950;39;20319;-39
2021/07/22 07:47:42;;;;;;;14.98;13.43;;;;;;;;;;3637967;39;20235;-41
2021/07/22 07:50:11;;;;;;;13.68;11.90;;;;;;;;;;3637244;39;20234;-40
2021/07/22 07:52:39;;;;;;;15.82;12.98;;;;;;;;;;3634153;39;20228;-40
2021/07/22 07:55:07;;;;;;;15.77;13.30;;;;;;;;;;3638346;39;20251;-41
2021/07/22 07:57:34;;;;;;;15.40;13.07;;;;;;;;;;3638013;39;20242;-46
2021/07/22 08:00:02;;;;;;;14.57;12.10;;;;;;;;;;3637583;39;20239;-40
2021/07/22 08:02:29;;;;;;;20.23;14.40;;;;;;;;;;3637298;39;20270;-39
2021/07/22 08:04:57;;;;;;;13.63;12.23;;;;;;;;;;3636752;39;20235;-41
2021/07/22 08:07:26;;;;;;;13.25;11.30;;;;;;;;;;3637838;39;20263;-41
2021/07/22 08:09:53;;;;;;;15.52;12.85;;;;;;;;;;3636031;39;20243;-40
2021/07/22 08:12:21;;;;;;;16.90;12.55;;;;;;;;;;3632725;39;20590;-41
2021/07/22 08:14:48;;;;;;;14.68;12.55;;;;;;;;;;3636080;39;20474;-40
2021/07/22 08:17:16;;;;;;;14.02;11.65;;;;;;;;;;3638071;39;20621;-40
2021/07/22 08:19:43;;;;;;;15.15;12.43;;;;;;;;;;3637685;39;20243;-39
2021/07/22 08:22:13;;;;;;;13.60;12.30;;;;;;;;;;3636893;39;20246;-40
2021/07/22 08:24:42;;;;;;;16.58;13.77;;;;;;;;;;3642261;39;20271;-39
2021/07/22 08:27:10;;;;;;;14.63;11.82;;;;;;;;;;3636005;39;20481;-41
2021/07/22 08:29:39;;;;;;;13.73;12.25;;;;;;;;;;3626892;39;20256;-40
2021/07/22 08:32:07;;;;;;;17.55;15.68;;;;;;;;;;3630778;39;20272;-39
2021/07/22 08:34:34;;;;;;;16.55;13.77;;;;;;;;;;3628676;39;20252;-40
2021/07/22 08:37:07;;;;;;;15.82;13.00;;;;;;;;;;3629346;39;20232;-40
2021/07/22 08:39:37;;;;;;;14.85;12.95;;;;;;;;;;3631204;39;20577;-40
2021/07/22 08:42:06;;;;;;;13.13;11.43;;;;;;;;;;3631567;39;20227;-40
2021/07/22 08:44:34;;;;;;;16.17;13.00;;;;;;;;;;3625873;39;20637;-41
2021/07/22 08:47:02;;;;;;;17.52;13.93;;;;;;;;;;3624393;39;20231;-42
2021/07/22 08:49:30;;;;;;;15.45;13.30;;;;;;;;;;3629812;39;20240;-40
2021/07/22 08:51:57;;;;;;;17.17;13.30;;;;;;;;;;3629353;39;20268;-40
2021/07/22 08:54:25;;;;;;;15.95;14.27;;;;;;;;;;3627462;39;20343;-42
2021/07/22 08:56:52;;;;;;;18.52;14.73;;;;;;;;;;3631858;39;20277;-40
2021/07/22 08:59:22;;;;;;;15.18;13.23;;;;;;;;;;3631544;39;20231;-40
2021/07/22 09:01:51;;;;;;;19.63;14.60;;;;;;;;;;3631283;39;20232;-42
2021/07/22 09:04:18;;;;;;;15.88;14.20;;;;;;;;;;3630872;39;20614;-42
2021/07/22 09:06:45;;;;;;;16.08;14.48;;;;;;;;;;3632024;39;20242;-41
2021/07/22 09:09:13;;;;;;;15.38;13.27;;;;;;;;;;3621296;39;20579;-40
2021/07/22 09:11:53;;;;;;;18.70;14.15;;;;;;;;;;3628715;39;20250;-41
2021/07/22 09:14:22;;;;;;;16.10;13.65;;;;;;;;;;3630842;39;20227;-40
2021/07/22 09:16:49;;;;;;;16.23;12.82;;;;;;;;;;3622138;39;20396;-39
2021/07/22 09:19:33;;;;;;;14.20;12.30;;;;;;;;;;3623642;39;20240;-40
2021/07/22 09:22:00;;;;;;;15.88;12.25;;;;;;;;;;3629146;39;20239;-40
2021/07/22 09:24:27;;;;;;;15.68;11.98;;;;;;;;;;3629024;39;20239;-40
2021/07/22 09:26:56;;;;;;;13.63;12.23;;;;;;;;;;3628718;39;20228;-41
2021/07/22 09:29:25;;;;;;;14.55;12.25;;;;;;;;;;3629611;39;20238;-40
2021/07/22 09:32:05;;;;;;;12.90;11.50;;;;;;;;;;3630323;39;20247;-39
2021/07/22 09:34:32;;;;;;;16.33;12.02;;;;;;;;;;3631201;39;20258;-39
2021/07/22 09:37:08;;;;;;;12.75;11.40;;;;;;;;;;3628779;39;20629;-41
2021/07/22 09:39:38;;;;;;;14.50;12.98;;;;;;;;;;3627279;39;20579;-42
2021/07/22 09:42:06;;;;;;;13.13;11.73;;;;;;;;;;3632064;39;20243;-41
2021/07/22 09:44:35;;;;;;;12.25;10.63;;;;;;;;;;3626667;39;20592;-40
2021/07/22 09:47:03;;;;;;;12.85;10.82;;;;;;;;;;3627171;39;20227;-40
2021/07/22 09:49:32;;;;;;;12.48;11.15;;;;;;;;;;3626837;39;20578;-43
2021/07/22 09:52:02;;;;;;;14.98;11.68;;;;;;;;;;3618857;39;20239;-40
2021/07/22 09:54:35;;;;;;;13.02;10.98;;;;;;;;;;3628898;39;20231;-40
2021/07/22 09:57:03;;;;;;;12.68;11.38;;;;;;;;;;3628726;39;20231;-41
2021/07/22 09:59:32;;;;;;;13.50;11.13;;;;;;;;;;3628545;39;20316;-40
2021/07/22 10:02:05;;;;;;;13.15;10.45;;;;;;;;;;3626675;39;20239;-40
2021/07/22 10:04:33;;;;;;;13.18;11.05;;;;;;;;;;3626690;39;20595;-39
2021/07/22 10:07:02;;;;;;;13.75;11.70;;;;;;;;;;3625220;39;20235;-40
2021/07/22 10:09:32;;;;;;;13.65;11.20;;;;;;;;;;3628595;39;20634;-41
2021/07/22 10:11:59;;;;;;;11.25;10.15;;;;;;;;;;3629327;39;20266;-41
2021/07/22 10:14:29;;;;;;;12.05;10.85;;;;;;;;;;3629358;39;20243;-40
2021/07/22 10:16:59;;;;;;;11.27;9.90;;;;;;;;;;3628804;39;20235;-40
2021/07/22 10:19:29;;;;;;;12.60;10.48;;;;;;;;;;3629336;39;20280;-40
2021/07/22 10:21:58;;;;;;;15.02;12.00;;;;;;;;;;3629379;39;20264;-40
2021/07/22 10:24:25;;;;;;;14.07;10.43;;;;;;;;;;3629469;39;20251;-40
2021/07/22 10:26:53;;;;;;;10.10;9.10;;;;;;;;;;3628720;39;20529;-41
2021/07/22 10:29:20;;;;;;;11.13;9.95;;;;;;;;;;3628950;39;20621;-42
2021/07/22 10:31:51;;;;;;;10.93;9.82;;;;;;;;;;3629173;39;20292;-40
2021/07/22 10:34:20;;;;;;;12.35;9.05;;;;;;;;;;3618960;39;20239;-42
2021/07/22 10:36:49;;;;;;;13.95;9.45;;;;;;;;;;3626709;39;20250;-40
2021/07/22 10:39:16;;;;;;;12.00;10.05;;;;;;;;;;3629313;39;20312;-42
2021/07/22 10:41:44;;;;;;;11.88;10.70;;;;;;;;;;3629463;39;20494;-40
2021/07/22 10:44:31;;;;;;;22.20;19.63;;;;;;;;;;3629850;39;20242;-41
2021/07/22 10:46:59;;;;;;;17.88;12.93;;;;;;;;;;3618592;39;20248;-42
2021/07/22 10:49:40;;;;;;;12.55;11.27;;;;;;;;;;3623384;39;20280;-42
2021/07/22 10:52:11;;;;;;;12.23;10.63;;;;;;;;;;3625139;39;20313;-39
2021/07/22 10:54:48;;;;;;;12.23;10.18;;;;;;;;;;3628504;39;20565;-40
2021/07/22 10:57:34;;;;;;;12.45;11.23;;;;;;;;;;3621690;39;20250;-39
2021/07/22 11:00:04;;;;;;;13.02;11.27;;;;;;;;;;3626599;39;20545;-40
2021/07/22 11:02:41;;;;;;;13.65;12.10;;;;;;;;;;3626961;39;20235;-40
2021/07/22 11:05:09;;;;;;;24.77;13.85;;;;;;;;;;3624764;39;20232;-42
2021/07/22 11:07:37;;;;;;;15.20;12.05;;;;;;;;;;3628783;39;20336;-40
2021/07/22 11:10:05;;;;;;;14.82;12.80;;;;;;;;;;3628767;39;20266;-40
2021/07/22 11:12:39;;;;;;;20.52;12.07;;;;;;;;;;3628998;39;20232;-40
2021/07/22 11:15:07;;;;;;;13.80;12.32;;;;;;;;;;3625826;39;20235;-40
2021/07/22 11:17:35;;;;;;;14.02;11.77;;;;;;;;;;3628340;39;20228;-40
2021/07/22 11:20:23;;;;;;;14.27;11.75;;;;;;;;;;3629145;39;20239;-40
2021/07/22 11:22:52;;;;;;;14.05;12.65;;;;;;;;;;3625453;39;20508;-40
2021/07/22 11:25:20;;;;;;;25.00;16.48;;;;;;;;;;3626544;39;20239;-40
2021/07/22 11:27:47;;;;;;;18.02;14.15;;;;;;;;;;3628617;39;20498;-40
2021/07/22 11:30:16;;;;;;;18.30;14.45;;;;;;;;;;3618936;39;20236;-40
2021/07/22 11:32:43;;;;;;;17.55;14.25;;;;;;;;;;3628422;39;20523;-40
2021/07/22 11:35:11;;;;;;;21.65;16.25;;;;;;;;;;3628464;39;20231;-42
2021/07/22 11:37:40;;;;;;;20.67;17.70;;;;;;;;;;3628335;39;20246;-40
2021/07/22 11:40:11;;;;;;;16.48;14.88;;;;;;;;;;3628105;39;20243;-41
2021/07/22 11:42:47;;;;;;;18.10;15.95;;;;;;;;;;3628800;39;20239;-41
2021/07/22 11:45:14;;;;;;;17.65;15.52;;;;;;;;;;3618012;39;20224;-40
2021/07/22 11:47:42;;;;;;;21.88;18.60;;;;;;;;;;3619113;39;20228;-40
2021/07/22 11:50:09;;;;;;;19.10;15.30;;;;;;;;;;3627600;39;20236;-40
2021/07/22 11:52:37;;;;;;;95.72;83.10;;;;;;;;;;3628221;39;20614;-41
2021/07/22 11:55:05;;;;;;;21.75;17.83;;;;;;;;;;3627880;39;20231;-40
2021/07/22 11:57:38;;;;;;;15.02;13.35;;;;;;;;;;3628346;39;20271;-41
2021/07/22 12:00:15;;;;;;;15.32;13.82;;;;;;;;;;3627957;39;20250;-39
2021/07/22 12:02:44;;;;;;;16.10;14.38;;;;;;;;;;3629760;39;20236;-41
2021/07/22 12:05:12;;;;;;;19.33;15.65;;;;;;;;;;3628625;39;20304;-40
2021/07/22 12:07:39;;;;;;;14.68;12.98;;;;;;;;;;3624880;39;20238;-41
2021/07/22 12:10:07;;;;;;;17.73;14.32;;;;;;;;;;3629697;39;20251;-40
2021/07/22 12:12:34;;;;;;;13.90;11.82;;;;;;;;;;3629799;39;20261;-39
2021/07/22 12:15:07;;;;;;;16.70;13.75;;;;;;;;;;3629686;39;20243;-40
2021/07/22 12:17:35;;;;;;;18.15;16.00;;;;;;;;;;3629491;39;20231;-40
2021/07/22 12:20:02;;;;;;;13.68;12.27;;;;;;;;;;3629620;39;20236;-40
2021/07/22 12:22:30;;;;;;;15.73;12.32;;;;;;;;;;3629695;39;20538;-41
2021/07/22 12:25:09;;;;;;;13.88;11.88;;;;;;;;;;3627202;39;20228;-43
2021/07/22 12:27:37;;;;;;;15.13;12.98;;;;;;;;;;3628676;39;20515;-40
2021/07/22 12:30:06;;;;;;;16.92;13.68;;;;;;;;;;3626746;39;20240;-41
2021/07/22 12:32:35;;;;;;;18.80;13.02;;;;;;;;;;3626500;39;20517;-40
2021/07/22 12:35:02;;;;;;;18.52;13.60;;;;;;;;;;3626876;39;20509;-41
2021/07/22 12:37:48;;;;;;;12.50;11.27;;;;;;;;;;3626150;39;20321;-40
2021/07/22 12:40:16;;;;;;;13.27;11.23;;;;;;;;;;3626783;39;20289;-40
2021/07/22 12:42:57;;;;;;;15.68;12.63;;;;;;;;;;3626174;39;20598;-40
2021/07/22 12:45:25;;;;;;;17.35;12.68;;;;;;;;;;3628139;39;20242;-41
2021/07/22 12:47:54;;;;;;;14.02;12.57;;;;;;;;;;3625237;39;20236;-41
2021/07/22 12:50:31;;;;;;;13.45;11.40;;;;;;;;;;3623482;39;20240;-40
2021/07/22 12:53:00;;;;;;;15.00;12.48;;;;;;;;;;3618921;39;20236;-40
2021/07/22 12:55:30;;;;;;;14.02;12.32;;;;;;;;;;3618931;39;20249;-39
2021/07/22 12:57:58;;;;;;;17.25;12.18;;;;;;;;;;3619083;39;20247;-40
2021/07/22 13:00:25;;;;;;;14.07;12.55;;;;;;;;;;3609353;39;20252;-39
2021/07/22 13:02:56;;;;;;;12.85;11.25;;;;;;;;;;3619388;39;20275;-40
2021/07/22 13:05:24;;;;;;;12.70;11.38;;;;;;;;;;3622626;39;20630;-40
2021/07/22 13:07:51;;;;;;;14.27;11.32;;;;;;;;;;3625806;39;20247;-40
2021/07/22 13:10:19;;;;;;;12.25;10.73;;;;;;;;;;3625525;39;20235;-41
2021/07/22 13:12:47;;;;;;;13.18;10.90;;;;;;;;;;3620232;39;20224;-42
2021/07/22 13:15:15;;;;;;;11.70;10.55;;;;;;;;;;3618979;39;20229;-39
2021/07/22 13:17:43;;;;;;;10.60;9.60;;;;;;;;;;3624276;39;20235;-41
2021/07/22 13:20:13;;;;;;;12.50;11.07;;;;;;;;;;3628965;39;20614;-41
2021/07/22 13:22:41;;;;;;;12.18;10.05;;;;;;;;;;3623573;39;20311;-41
2021/07/22 13:25:09;;;;;;;13.60;10.43;;;;;;;;;;3625433;39;20240;-39
2021/07/22 13:27:36;;;;;;;11.40;10.20;;;;;;;;;;3626149;39;20228;-39
2021/07/22 13:30:05;;;;;;;12.60;10.15;;;;;;;;;;3623598;39;20235;-40
2021/07/22 13:32:34;;;;;;;13.35;11.82;;;;;;;;;;3628467;39;20595;-41
2021/07/22 13:35:01;;;;;;;11.27;9.18;;;;;;;;;;3629186;39;20227;-40
2021/07/22 13:37:30;;;;;;;17.80;11.23;;;;;;;;;;3627489;39;20312;-40
2021/07/22 13:39:57;;;;;;;11.57;10.48;;;;;;;;;;3626673;39;20699;-40
2021/07/22 13:42:25;;;;;;;11.40;10.30;;;;;;;;;;3627758;39;20239;-41
2021/07/22 13:44:53;;;;;;;13.30;10.77;;;;;;;;;;3624707;39;20600;-40
2021/07/22 13:47:20;;;;;;;14.75;11.45;;;;;;;;;;3622021;39;20485;-39
2021/07/22 13:49:47;;;;;;;13.90;10.23;;;;;;;;;;3625560;39;20248;-41
2021/07/22 13:52:15;;;;;;;14.98;11.82;;;;;;;;;;3629896;39;20239;-39
2021/07/22 13:54:44;;;;;;;12.02;10.35;;;;;;;;;;3628684;39;20292;-40
2021/07/22 13:57:11;;;;;;;14.07;11.75;;;;;;;;;;3626468;39;20598;-40
2021/07/22 13:59:38;;;;;;;14.80;11.63;;;;;;;;;;3625191;39;20256;-40
2021/07/22 14:02:06;;;;;;;14.65;10.55;;;;;;;;;;3626649;39;20515;-40
2021/07/22 14:04:35;;;;;;;11.52;9.63;;;;;;;;;;3620928;39;20245;-41
2021/07/22 14:07:03;;;;;;;13.20;10.43;;;;;;;;;;3622202;39;20228;-40
2021/07/22 14:09:30;;;;;;;11.93;10.50;;;;;;;;;;3624707;39;20279;-40
2021/07/22 14:11:59;;;;;;;9.25;8.30;;;;;;;;;;3628860;39;20234;-39
2021/07/22 14:14:26;;;;;;;13.75;10.63;;;;;;;;;;3629010;39;20599;-42
2021/07/22 14:16:53;;;;;;;10.98;9.88;;;;;;;;;;3624536;39;20238;-40
2021/07/22 14:19:21;;;;;;;11.02;9.35;;;;;;;;;;3625417;39;20281;-40
2021/07/22 14:21:49;;;;;;;11.13;10.07;;;;;;;;;;3618451;39;20234;-40
2021/07/22 14:24:17;;;;;;;11.63;10.25;;;;;;;;;;3627174;39;20232;-42
2021/07/22 14:26:44;;;;;;;12.15;10.38;;;;;;;;;;3626844;39;20247;-40
2021/07/22 14:29:13;;;;;;;10.95;9.95;;;;;;;;;;3625581;39;20240;-40
2021/07/22 14:31:40;;;;;;;13.45;10.88;;;;;;;;;;3624413;39;20603;-40
2021/07/22 14:34:08;;;;;;;12.23;9.40;;;;;;;;;;3624180;39;20284;-40
2021/07/22 14:36:36;;;;;;;10.85;9.60;;;;;;;;;;3622963;39;20249;-41
2021/07/22 14:39:04;;;;;;;12.38;10.30;;;;;;;;;;3622911;39;20224;-40
2021/07/22 14:41:31;;;;;;;29.50;26.40;;;;;;;;;;3628601;39;20239;-40